Time;durP1;ratioP1;P1;durP2;ratioP2;P2;SDS_P1;SDS_P2;PMS_P1;PMS_P2;Temp;Humidity;BMP_temperature;BMP_pressure;BME280_temperature;BME280_humidity;BME280_pressure;Samples;Min_cycle;Max_cycle;Signal;HPM_P1;HPM_P2
2021/06/04 00:01:43;;;;;;;8.70;6.82;;;21.10;73.30;;;;;;5033375;28;20033;-95
2021/06/04 00:04:09;;;;;;;8.07;7.10;;;21.10;73.30;;;;;;5031754;28;20083;-96
2021/06/04 00:06:36;;;;;;;10.82;9.15;;;21.00;73.30;;;;;;5020576;28;20025;-96
2021/06/04 00:09:05;;;;;;;10.85;8.43;;;21.00;73.40;;;;;;5035625;28;20025;-96
2021/06/04 00:11:36;;;;;;;10.68;8.73;;;21.00;73.60;;;;;;5036275;28;20044;-96
2021/06/04 00:14:10;;;;;;;9.73;8.35;;;20.90;73.60;;;;;;5036785;28;20060;-96
2021/06/04 00:16:41;;;;;;;10.38;9.10;;;20.90;73.70;;;;;;5035740;28;20014;-96
2021/06/04 00:19:14;;;;;;;9.98;8.77;;;20.90;73.90;;;;;;5032020;28;20130;-96
2021/06/04 00:21:46;;;;;;;9.77;8.32;;;20.80;74.00;;;;;;5007038;28;20028;-93
2021/06/04 00:24:13;;;;;;;11.18;10.02;;;20.70;74.20;;;;;;5034647;28;20028;-93
2021/06/04 00:26:42;;;;;;;10.20;8.68;;;20.70;74.40;;;;;;5016766;28;20383;-93
2021/06/04 00:29:08;;;;;;;9.80;8.73;;;20.70;74.50;;;;;;5034454;28;20022;-93
2021/06/04 00:31:33;;;;;;;8.82;7.82;;;20.70;74.60;;;;;;5022030;28;20014;-93
2021/06/04 00:34:02;;;;;;;9.00;7.55;;;20.70;74.60;;;;;;5018339;28;20022;-92
2021/06/04 00:36:28;;;;;;;10.18;9.15;;;20.60;74.60;;;;;;5014547;28;20026;-92
2021/06/04 00:38:55;;;;;;;12.50;9.35;;;20.60;74.80;;;;;;5021924;28;20366;-91
2021/06/04 00:41:25;;;;;;;10.35;9.27;;;20.60;74.80;;;;;;5014019;28;20026;-92
2021/06/04 00:43:52;;;;;;;11.15;8.85;;;20.60;74.90;;;;;;5014404;28;20535;-91
2021/06/04 00:46:18;;;;;;;11.80;9.35;;;20.50;74.90;;;;;;5014703;28;20050;-93
2021/06/04 00:48:44;;;;;;;10.02;8.30;;;20.50;75.00;;;;;;5031517;28;20044;-93
2021/06/04 00:51:18;;;;;;;11.15;9.95;;;20.50;75.00;;;;;;5033492;28;20025;-91
2021/06/04 00:53:45;;;;;;;11.65;10.23;;;20.50;75.10;;;;;;5021952;28;20044;-91
2021/06/04 00:56:11;;;;;;;11.60;10.43;;;20.50;75.20;;;;;;5033201;28;20022;-94
2021/06/04 00:58:41;;;;;;;10.35;9.23;;;20.40;75.30;;;;;;5034215;28;20117;-95
2021/06/04 01:01:08;;;;;;;10.27;9.13;;;20.30;75.40;;;;;;5033839;28;20057;-96
2021/06/04 01:03:37;;;;;;;11.40;8.88;;;20.30;75.40;;;;;;5033454;28;20024;-96
2021/06/04 01:06:07;;;;;;;10.75;9.13;;;20.30;75.50;;;;;;5027060;28;20064;-92
2021/06/04 01:09:18;;;;;;;10.70;8.93;;;20.30;75.60;;;;;;5016300;28;20084;-95
2021/06/04 01:11:49;;;;;;;8.82;7.85;;;20.30;75.60;;;;;;4986117;28;20121;-96
2021/06/04 01:14:28;;;;;;;10.35;8.95;;;20.30;75.50;;;;;;5031615;28;20025;-95
2021/06/04 01:17:21;;;;;;;9.13;8.13;;;20.40;75.60;;;;;;5019280;28;20033;-96
2021/06/04 01:20:00;;;;;;;10.80;9.07;;;20.30;75.50;;;;;;5001537;28;20030;-96
2021/06/04 01:35:29;;;;;;;12.30;10.48;;;20.30;75.50;;;;;;5342637;22;20058;-95
2021/06/04 01:37:56;;;;;;;12.20;10.77;;;20.30;75.60;;;;;;5023565;28;20032;-96
2021/06/04 01:40:29;;;;;;;11.73;10.50;;;20.20;75.60;;;;;;5027606;28;20017;-96
2021/06/04 01:42:58;;;;;;;13.10;10.07;;;20.20;75.60;;;;;;5020034;23;20111;-96
2021/06/04 01:45:31;;;;;;;12.98;10.65;;;20.20;75.70;;;;;;5031604;28;20113;-96
2021/06/04 01:48:01;;;;;;;13.95;11.10;;;20.20;75.70;;;;;;5025603;28;20052;-96
2021/06/04 01:50:35;;;;;;;12.70;10.20;;;20.20;75.60;;;;;;5028365;28;20034;-96
2021/06/04 01:53:11;;;;;;;13.13;10.82;;;20.20;75.50;;;;;;5033781;28;20100;-96
2021/06/04 01:55:56;;;;;;;13.25;10.77;;;20.20;75.50;;;;;;5046997;28;20022;-96
2021/06/04 01:59:06;;;;;;;12.90;11.02;;;20.10;75.50;;;;;;5035816;28;20041;-96
2021/06/04 02:01:56;;;;;;;14.15;11.48;;;20.10;75.60;;;;;;5045862;28;20056;-96
2021/06/04 02:07:30;;;;;;;12.35;9.57;;;20.10;75.70;;;;;;5759231;22;20049;-93
2021/06/04 02:09:56;;;;;;;11.85;10.07;;;20.00;75.80;;;;;;5015237;28;20045;-95
2021/06/04 02:12:22;;;;;;;13.50;10.98;;;19.90;75.90;;;;;;5023479;28;20504;-96
2021/06/04 02:14:59;;;;;;;13.68;12.18;;;19.90;76.00;;;;;;5019375;28;20022;-96
2021/06/04 02:17:33;;;;;;;16.42;13.20;;;19.90;76.20;;;;;;5015505;28;20018;-94
2021/06/04 02:20:31;;;;;;;13.13;11.07;;;19.80;76.30;;;;;;5011936;28;20034;-94
2021/06/04 02:23:18;;;;;;;13.30;10.43;;;19.80;76.40;;;;;;4994514;28;20489;-95
2021/06/04 02:26:01;;;;;;;14.02;10.82;;;19.80;76.30;;;;;;5012427;28;20483;-94
2021/06/04 02:28:41;;;;;;;13.85;10.85;;;19.80;76.70;;;;;;4994456;28;20129;-94
2021/06/04 02:31:27;;;;;;;14.25;11.05;;;19.70;76.40;;;;;;5011723;28;20461;-93
2021/06/04 02:34:15;;;;;;;14.10;11.32;;;19.70;76.60;;;;;;4994786;28;20041;-93
2021/06/04 02:36:47;;;;;;;11.55;10.15;;;19.60;76.70;;;;;;4994595;28;20037;-95
2021/06/04 02:39:21;;;;;;;14.38;11.27;;;19.60;76.70;;;;;;5011991;28;20022;-94
2021/06/04 02:42:01;;;;;;;13.85;10.73;;;19.60;76.80;;;;;;5012149;28;20105;-93
2021/06/04 02:44:32;;;;;;;13.45;10.45;;;19.50;76.80;;;;;;4993943;28;20030;-92
2021/06/04 02:47:04;;;;;;;14.40;11.50;;;19.50;76.80;;;;;;5011758;28;20042;-93
2021/06/04 02:49:29;;;;;;;14.32;11.68;;;19.50;76.80;;;;;;4993866;28;20014;-91
2021/06/04 02:52:23;;;;;;;17.55;14.35;;;19.60;76.80;;;;;;4994014;28;20029;-93
2021/06/04 02:54:49;;;;;;;17.80;13.93;;;19.50;76.80;;;;;;4993917;28;20049;-93
2021/06/04 02:57:17;;;;;;;15.18;12.73;;;19.50;76.80;;;;;;5011607;28;20469;-93
2021/06/04 02:59:48;;;;;;;13.93;11.18;;;19.50;76.80;;;;;;5011349;28;20021;-93
2021/06/04 03:02:15;;;;;;;13.38;10.90;;;19.50;76.90;;;;;;4994109;28;20028;-93
2021/06/04 03:04:45;;;;;;;15.90;10.50;;;19.50;76.80;;;;;;5009772;28;20032;-93
2021/06/04 03:07:29;;;;;;;14.15;10.32;;;19.50;76.70;;;;;;5008637;28;81520;-92
2021/06/04 03:09:57;;;;;;;16.58;12.13;;;19.50;76.70;;;;;;4995601;28;20018;-93
2021/06/04 03:12:36;;;;;;;16.83;13.27;;;19.50;76.70;;;;;;5012464;28;20472;-93
2021/06/04 03:15:09;;;;;;;16.73;13.27;;;19.50;76.80;;;;;;5012145;28;20037;-92
2021/06/04 03:17:36;;;;;;;21.75;15.13;;;19.50;76.80;;;;;;5012281;28;20030;-92
2021/06/04 03:20:09;;;;;;;17.40;12.52;;;19.40;76.70;;;;;;5012634;28;20030;-94
2021/06/04 03:22:39;;;;;;;16.83;13.23;;;19.40;76.80;;;;;;5011757;28;20032;-95
2021/06/04 03:25:20;;;;;;;15.50;11.65;;;19.40;76.80;;;;;;4976490;28;20037;-96
2021/06/04 03:27:47;;;;;;;15.70;12.25;;;19.40;76.80;;;;;;4975663;28;20034;-96
2021/06/04 03:30:14;;;;;;;16.90;12.63;;;19.40;76.80;;;;;;5005804;28;20018;-95
2021/06/04 03:32:40;;;;;;;14.63;12.48;;;19.40;76.80;;;;;;5014861;28;20038;-96
2021/06/04 03:35:08;;;;;;;15.88;11.82;;;19.40;76.90;;;;;;5015565;28;20052;-95
2021/06/04 03:37:35;;;;;;;14.93;11.77;;;19.40;77.00;;;;;;5015304;28;20025;-94
2021/06/04 03:40:03;;;;;;;14.30;11.38;;;19.40;77.00;;;;;;4998153;28;20084;-94
2021/06/04 03:42:29;;;;;;;15.20;12.15;;;19.40;76.90;;;;;;5015623;28;20069;-95
2021/06/04 03:44:56;;;;;;;15.32;12.15;;;19.40;76.90;;;;;;5015892;28;20036;-96
2021/06/04 03:47:22;;;;;;;15.48;11.75;;;19.40;76.80;;;;;;5015325;28;20065;-94
2021/06/04 03:49:48;;;;;;;13.88;10.95;;;19.40;76.80;;;;;;5002857;28;20030;-96
2021/06/04 03:52:16;;;;;;;13.70;9.82;;;19.40;76.70;;;;;;4997976;28;20378;-94
2021/06/04 03:54:46;;;;;;;16.10;12.23;;;19.40;76.70;;;;;;4998382;28;20544;-95
2021/06/04 03:57:14;;;;;;;12.85;10.68;;;19.40;76.80;;;;;;5015653;28;20025;-95
2021/06/04 03:59:42;;;;;;;14.57;11.88;;;19.30;76.70;;;;;;5015220;28;20033;-94
2021/06/04 04:02:13;;;;;;;14.63;11.70;;;19.30;76.70;;;;;;5015072;28;20488;-90
2021/06/04 04:04:38;;;;;;;14.93;12.25;;;19.30;76.70;;;;;;5015209;28;20037;-92
2021/06/04 04:07:05;;;;;;;14.10;11.02;;;19.30;76.70;;;;;;4997459;28;20056;-91
2021/06/04 04:09:31;;;;;;;12.65;10.63;;;19.30;76.70;;;;;;5014861;28;20087;-91
2021/06/04 04:11:57;;;;;;;12.88;10.60;;;19.30;76.80;;;;;;5014989;28;20030;-92
2021/06/04 04:14:25;;;;;;;14.35;11.90;;;19.30;76.60;;;;;;5015107;28;20118;-93
2021/06/04 04:16:51;;;;;;;15.50;11.27;;;19.40;76.60;;;;;;4997499;28;20479;-91
2021/06/04 04:19:19;;;;;;;13.90;11.35;;;19.40;76.50;;;;;;5014429;28;20022;-93
2021/06/04 04:21:46;;;;;;;13.18;10.98;;;19.50;76.30;;;;;;5012941;28;20034;-94
2021/06/04 04:24:15;;;;;;;12.32;10.38;;;19.50;76.20;;;;;;4998499;28;20041;-94
2021/06/04 04:26:42;;;;;;;13.30;10.50;;;19.60;76.20;;;;;;5014707;28;20033;-94
2021/06/04 04:29:08;;;;;;;12.82;10.70;;;19.60;76.10;;;;;;4996810;28;20544;-95
2021/06/04 04:31:38;;;;;;;14.75;11.80;;;19.60;76.00;;;;;;5014535;28;20049;-95
2021/06/04 04:34:05;;;;;;;12.77;10.45;;;19.70;75.90;;;;;;5015031;28;20033;-95
2021/06/04 04:36:36;;;;;;;14.63;11.43;;;19.70;75.80;;;;;;5013283;28;20080;-95
2021/06/04 04:39:05;;;;;;;13.32;10.13;;;19.70;75.80;;;;;;5013244;28;20030;-96
2021/06/04 04:41:31;;;;;;;12.52;10.57;;;19.80;75.90;;;;;;5015049;28;20029;-96
2021/06/04 04:43:57;;;;;;;12.85;10.57;;;19.80;75.90;;;;;;5014578;28;20021;-96
2021/06/04 04:46:26;;;;;;;12.48;10.43;;;19.80;76.00;;;;;;5013061;28;20021;-94
2021/06/04 04:48:52;;;;;;;13.73;10.85;;;19.80;76.00;;;;;;5008873;28;20064;-95
2021/06/04 04:51:19;;;;;;;13.93;11.40;;;19.80;76.00;;;;;;5013865;28;20477;-96
2021/06/04 04:53:46;;;;;;;16.50;12.35;;;20.00;76.20;;;;;;5014662;28;20022;-95
2021/06/04 04:56:12;;;;;;;16.33;12.77;;;20.40;75.40;;;;;;5017010;28;20496;-96
2021/06/04 04:58:39;;;;;;;16.23;12.85;;;20.70;74.40;;;;;;5016841;28;20022;-94
2021/06/04 05:01:07;;;;;;;14.40;12.18;;;20.80;73.80;;;;;;5018339;28;20042;-94
2021/06/04 05:03:34;;;;;;;13.15;10.60;;;21.20;72.90;;;;;;5003809;28;20113;-90
2021/06/04 05:06:00;;;;;;;14.77;11.02;;;21.50;72.00;;;;;;5014484;28;20056;-94
2021/06/04 05:08:25;;;;;;;12.38;10.45;;;21.70;71.50;;;;;;4999405;28;20117;-95
2021/06/04 05:10:51;;;;;;;14.38;10.23;;;21.90;70.80;;;;;;5013194;28;20125;-95
2021/06/04 05:13:19;;;;;;;15.73;11.77;;;21.90;70.40;;;;;;4996569;28;20029;-96
2021/06/04 05:15:45;;;;;;;12.63;10.85;;;22.00;70.30;;;;;;5014041;28;20408;-95
2021/06/04 05:18:13;;;;;;;11.98;9.88;;;22.10;69.70;;;;;;5000881;28;20033;-92
2021/06/04 05:20:42;;;;;;;15.15;11.98;;;22.00;69.80;;;;;;5002285;28;20117;-91
2021/06/04 05:23:08;;;;;;;13.40;11.15;;;22.30;69.70;;;;;;5013754;28;20029;-92
2021/06/04 05:25:38;;;;;;;11.77;9.48;;;22.80;68.60;;;;;;5019840;28;20133;-94
2021/06/04 05:28:05;;;;;;;14.32;9.80;;;23.40;67.40;;;;;;5013200;28;20030;-95
2021/06/04 05:30:36;;;;;;;11.07;9.43;;;23.70;66.10;;;;;;5013240;28;20148;-91
2021/06/04 05:33:02;;;;;;;11.32;9.93;;;24.00;65.30;;;;;;5013624;28;20495;-92
2021/06/04 05:35:29;;;;;;;11.63;9.40;;;24.40;64.40;;;;;;4998975;28;20022;-95
2021/06/04 05:37:55;;;;;;;14.85;10.80;;;24.50;63.60;;;;;;5014421;28;20033;-96
2021/06/04 05:40:37;;;;;;;12.65;9.95;;;24.70;63.20;;;;;;5013218;28;20104;-94
2021/06/04 05:43:08;;;;;;;9.35;8.30;;;25.00;62.90;;;;;;5013471;28;20040;-91
2021/06/04 05:45:37;;;;;;;11.98;9.73;;;24.90;62.50;;;;;;4996670;28;20032;-93
2021/06/04 05:48:06;;;;;;;10.50;7.65;;;24.30;63.30;;;;;;5012491;28;20030;-96
2021/06/04 05:53:23;;;;;;;10.45;8.57;;;23.80;64.90;;;;;;5717679;22;20661;-96
2021/06/04 05:55:49;;;;;;;12.90;9.90;;;24.10;64.70;;;;;;5019444;28;20029;-96
2021/06/04 05:58:18;;;;;;;12.15;9.60;;;24.20;64.20;;;;;;5029844;28;20091;-90
2021/06/04 06:00:46;;;;;;;12.02;10.02;;;24.20;64.20;;;;;;5004654;28;20669;-89
2021/06/04 06:03:20;;;;;;;13.65;8.98;;;24.10;64.10;;;;;;5006389;28;20021;-90
2021/06/04 06:05:46;;;;;;;9.52;8.48;;;24.20;64.50;;;;;;5028092;28;20032;-91
2021/06/04 06:08:12;;;;;;;12.35;10.55;;;24.30;64.30;;;;;;5011514;28;20042;-88
2021/06/04 06:10:38;;;;;;;11.38;9.30;;;24.30;63.90;;;;;;5009949;28;20030;-86
2021/06/04 06:13:04;;;;;;;13.43;9.63;;;24.10;64.10;;;;;;5010827;28;20030;-87
2021/06/04 06:15:29;;;;;;;12.85;9.52;;;24.10;64.30;;;;;;5009640;28;20026;-89
2021/06/04 06:17:56;;;;;;;12.13;9.48;;;24.10;64.30;;;;;;5009556;28;20052;-88
2021/06/04 06:20:25;;;;;;;13.27;10.70;;;24.10;64.40;;;;;;5008766;28;20029;-88
2021/06/04 06:22:52;;;;;;;11.80;9.65;;;24.00;64.30;;;;;;5010008;28;20022;-88
2021/06/04 06:25:22;;;;;;;12.55;10.43;;;23.90;64.40;;;;;;4992515;28;20033;-88
2021/06/04 06:27:48;;;;;;;8.23;6.88;;;23.90;64.80;;;;;;5008064;28;20126;-87
2021/06/04 06:30:21;;;;;;;13.98;11.32;;;23.90;64.50;;;;;;5001935;28;20516;-87
2021/06/04 06:32:47;;;;;;;13.85;10.68;;;23.70;63.90;;;;;;5012101;28;20465;-87
2021/06/04 06:35:14;;;;;;;11.55;9.60;;;23.50;64.30;;;;;;5016149;28;20105;-86
2021/06/04 06:37:39;;;;;;;10.20;7.97;;;23.50;65.00;;;;;;5010353;28;20569;-88
2021/06/04 06:40:08;;;;;;;9.80;8.07;;;23.70;65.70;;;;;;4992080;28;20019;-87
2021/06/04 06:42:33;;;;;;;12.15;9.77;;;23.80;64.70;;;;;;5010121;28;20046;-85
2021/06/04 06:45:03;;;;;;;9.75;7.82;;;24.00;64.30;;;;;;5009253;28;20018;-84
2021/06/04 06:47:29;;;;;;;13.20;10.48;;;24.10;64.10;;;;;;5015764;28;20029;-84
2021/06/04 06:49:54;;;;;;;10.10;7.93;;;24.20;63.80;;;;;;5013853;28;20427;-93
2021/06/04 06:52:20;;;;;;;9.00;7.32;;;24.30;63.60;;;;;;4995578;28;20014;-92
2021/06/04 06:54:50;;;;;;;12.63;9.35;;;24.50;63.60;;;;;;4999226;28;20083;-96
2021/06/04 06:57:18;;;;;;;14.05;10.80;;;24.50;63.20;;;;;;5120935;22;20053;-96
2021/06/04 06:59:43;;;;;;;12.07;9.95;;;24.50;62.70;;;;;;5031971;28;20028;-90
2021/06/04 07:02:11;;;;;;;10.00;7.95;;;24.40;62.20;;;;;;4999711;28;20034;-88
2021/06/04 07:04:38;;;;;;;7.95;5.80;;;24.40;62.00;;;;;;5019794;28;20117;-89
2021/06/04 07:07:05;;;;;;;5.32;4.68;;;24.60;61.90;;;;;;5025720;28;20037;-88
2021/06/04 07:09:31;;;;;;;9.07;7.72;;;24.80;61.60;;;;;;5012264;28;20017;-90
2021/06/04 07:11:57;;;;;;;9.65;7.57;;;24.70;60.80;;;;;;5000413;28;20029;-89
2021/06/04 07:14:29;;;;;;;9.18;7.88;;;24.70;61.10;;;;;;5028563;28;20029;-89
2021/06/04 07:16:56;;;;;;;8.75;6.97;;;25.00;61.00;;;;;;5020674;28;20030;-90
2021/06/04 07:19:21;;;;;;;9.32;7.88;;;25.10;60.60;;;;;;5022758;28;20072;-90
2021/06/04 07:21:48;;;;;;;11.13;9.18;;;25.30;60.40;;;;;;5018859;28;20057;-90
2021/06/04 07:24:15;;;;;;;14.00;11.05;;;25.50;60.10;;;;;;5028536;28;20037;-90
2021/06/04 07:26:53;;;;;;;9.50;7.55;;;25.40;59.40;;;;;;5030475;28;20104;-90
2021/06/04 07:29:21;;;;;;;7.65;6.07;;;25.40;59.60;;;;;;5033908;28;20030;-90
2021/06/04 07:31:48;;;;;;;8.45;7.30;;;25.50;59.70;;;;;;5032025;28;20021;-90
2021/06/04 07:34:16;;;;;;;6.22;5.03;;;25.60;59.40;;;;;;5008225;28;20120;-89
2021/06/04 07:36:49;;;;;;;7.72;6.40;;;25.90;59.40;;;;;;5011235;28;20022;-89
2021/06/04 07:39:18;;;;;;;11.00;8.43;;;26.10;59.00;;;;;;5005655;28;20044;-90
2021/06/04 07:41:44;;;;;;;10.50;8.35;;;26.10;58.10;;;;;;5032883;28;20022;-89
2021/06/04 07:44:12;;;;;;;11.55;9.38;;;26.20;58.00;;;;;;5034101;28;20029;-89
2021/06/04 07:46:39;;;;;;;8.82;7.57;;;26.10;57.30;;;;;;5016032;28;20022;-90
2021/06/04 07:49:05;;;;;;;8.35;7.13;;;26.20;57.70;;;;;;5021057;28;20132;-91
2021/06/04 07:51:35;;;;;;;9.55;7.95;;;26.30;57.90;;;;;;5031586;28;20052;-89
2021/06/04 07:54:05;;;;;;;8.15;6.90;;;26.40;57.40;;;;;;5024963;28;20052;-90
2021/06/04 07:56:31;;;;;;;8.65;7.35;;;26.30;57.30;;;;;;5025099;28;20037;-90
2021/06/04 07:58:57;;;;;;;10.18;7.60;;;26.30;57.40;;;;;;5024724;28;20572;-90
2021/06/04 08:01:23;;;;;;;9.95;7.45;;;26.20;57.70;;;;;;5023461;28;20030;-87
2021/06/04 08:03:49;;;;;;;7.78;6.00;;;26.10;57.70;;;;;;5026637;28;20530;-88
2021/06/04 08:06:16;;;;;;;6.85;5.60;;;26.00;58.00;;;;;;5022690;28;20025;-90
2021/06/04 08:08:43;;;;;;;8.15;6.30;;;25.90;58.30;;;;;;5023134;28;20038;-89
2021/06/04 08:11:17;;;;;;;7.50;5.47;;;25.90;58.20;;;;;;5009124;28;20488;-89
2021/06/04 08:13:46;;;;;;;7.05;5.72;;;25.90;58.20;;;;;;5026818;28;20037;-89
2021/06/04 08:16:15;;;;;;;7.82;5.32;;;26.00;58.00;;;;;;5007940;28;20030;-94
2021/06/04 08:18:41;;;;;;;7.35;5.55;;;25.90;57.80;;;;;;5010995;28;20107;-89
2021/06/04 08:21:13;;;;;;;7.03;5.68;;;25.90;57.60;;;;;;5033707;28;20032;-89
2021/06/04 08:23:41;;;;;;;8.07;5.25;;;25.80;57.60;;;;;;5012949;28;20026;-90
2021/06/04 08:26:11;;;;;;;7.13;5.85;;;25.80;57.80;;;;;;5028982;28;20104;-89
2021/06/04 08:28:38;;;;;;;7.10;5.50;;;25.80;58.10;;;;;;5019038;28;20033;-89
2021/06/04 08:31:10;;;;;;;7.82;6.35;;;25.90;58.30;;;;;;5034037;28;20076;-91
2021/06/04 08:33:38;;;;;;;;;;;26.00;58.00;;;;;;5033004;28;20075;-89
2021/06/04 08:36:06;;;;;;;8.65;6.05;;;26.10;58.30;;;;;;5033248;28;20000;-90
2021/06/04 08:38:35;;;;;;;8.45;6.72;;;26.10;57.20;;;;;;5041140;28;20018;-89
2021/06/04 08:41:24;;;;;;;7.53;6.32;;;25.80;56.80;;;;;;5028607;28;20091;-89
2021/06/04 08:43:58;;;;;;;7.72;5.68;;;25.70;57.70;;;;;;5023141;28;20125;-90
2021/06/04 08:46:33;;;;;;;6.80;5.50;;;25.70;57.80;;;;;;5033555;28;20537;-90
2021/06/04 08:49:28;;;;;;;5.50;4.78;;;25.80;58.00;;;;;;5033338;28;20088;-90
2021/06/04 08:52:06;;;;;;;6.70;5.13;;;25.90;58.20;;;;;;5014597;28;20087;-88
2021/06/04 08:54:53;;;;;;;4.78;4.15;;;26.00;57.90;;;;;;5021430;28;20036;-90
2021/06/04 08:57:25;;;;;;;6.32;5.00;;;26.10;57.20;;;;;;5013831;28;20038;-89
2021/06/04 08:59:52;;;;;;;5.72;4.28;;;25.90;56.60;;;;;;5033721;28;20026;-89
2021/06/04 09:02:22;;;;;;;4.78;3.55;;;26.00;57.00;;;;;;5022985;28;20056;-89
2021/06/04 09:05:01;;;;;;;6.47;4.18;;;26.10;56.90;;;;;;5020220;28;20020;-90
2021/06/04 09:07:35;;;;;;;6.00;3.60;;;26.20;56.60;;;;;;5021342;28;20053;-91
2021/06/04 09:10:28;;;;;;;4.07;2.88;;;26.20;56.70;;;;;;5030901;28;20053;-88
2021/06/04 09:13:14;;;;;;;3.65;3.05;;;26.20;56.60;;;;;;5015532;28;20037;-90
2021/06/04 09:15:42;;;;;;;5.13;4.20;;;26.20;56.30;;;;;;5025022;28;20029;-89
2021/06/04 09:18:34;;;;;;;4.20;3.10;;;26.10;55.70;;;;;;5032653;28;20022;-87
2021/06/04 09:21:02;;;;;;;5.63;3.10;;;26.20;55.90;;;;;;5028065;28;20033;-89
2021/06/04 09:23:34;;;;;;;5.95;2.97;;;26.40;55.60;;;;;;5051911;28;20017;-86
2021/06/04 09:26:01;;;;;;;3.53;3.10;;;26.60;55.80;;;;;;5014430;28;20065;-88
2021/06/04 09:28:36;;;;;;;4.47;3.15;;;26.70;55.50;;;;;;5014623;28;20036;-89
2021/06/04 09:31:25;;;;;;;3.88;2.90;;;26.80;55.20;;;;;;5009777;28;20032;-89
2021/06/04 09:34:12;;;;;;;4.47;3.60;;;26.90;55.00;;;;;;5010551;28;20021;-88
2021/06/04 09:36:58;;;;;;;5.35;4.10;;;27.00;54.90;;;;;;5018292;28;20029;-96
2021/06/04 09:39:35;;;;;;;4.32;3.15;;;26.80;54.00;;;;;;5034595;28;20025;-95
2021/06/04 09:42:10;;;;;;;5.43;3.45;;;27.00;54.70;;;;;;5029720;28;20029;-95
2021/06/04 09:44:57;;;;;;;4.00;2.83;;;27.20;54.40;;;;;;5033327;28;20021;-92
2021/06/04 09:47:32;;;;;;;4.65;2.78;;;27.40;54.30;;;;;;5009280;28;20033;-91
2021/06/04 09:50:10;;;;;;;4.60;3.67;;;27.60;53.90;;;;;;5019977;28;20030;-94
2021/06/04 09:52:39;;;;;;;4.32;3.35;;;27.70;53.50;;;;;;5016570;28;20084;-94
2021/06/04 09:55:25;;;;;;;4.22;3.03;;;27.60;53.30;;;;;;5014722;28;20122;-93
2021/06/04 09:58:06;;;;;;;3.45;3.15;;;27.60;53.70;;;;;;5014706;28;20115;-90
2021/06/04 10:00:38;;;;;;;2.70;2.50;;;27.50;53.70;;;;;;5009699;28;20083;-93
2021/06/04 10:03:15;;;;;;;4.55;3.38;;;27.50;53.70;;;;;;5009304;28;20041;-92
2021/06/04 10:05:42;;;;;;;3.92;3.08;;;27.20;53.30;;;;;;5017405;28;20025;-93
2021/06/04 10:08:28;;;;;;;6.05;3.83;;;27.00;53.70;;;;;;5014446;28;20711;-93
2021/06/04 10:11:13;;;;;;;4.93;4.05;;;26.90;54.20;;;;;;5014833;28;20063;-92
2021/06/04 10:14:12;;;;;;;6.82;5.00;;;26.90;54.30;;;;;;5011586;28;20059;-94
2021/06/04 10:19:41;;;;;;;4.80;4.05;;;26.60;54.80;;;;;;5030328;28;20030;-90
2021/06/04 10:22:16;;;;;;;6.38;5.45;;;26.60;54.90;;;;;;5012495;28;20049;-94
2021/06/04 10:24:49;;;;;;;6.68;5.00;;;26.60;54.60;;;;;;5005421;28;20032;-88
2021/06/04 10:27:25;;;;;;;5.05;4.18;;;26.60;55.00;;;;;;5022724;28;20025;-92
2021/06/04 10:30:07;;;;;;;7.43;5.05;;;26.70;55.00;;;;;;5014194;28;20954;-92
2021/06/04 10:32:58;;;;;;;5.90;5.00;;;27.00;55.10;;;;;;5035842;28;20209;-93
2021/06/04 10:35:28;;;;;;;6.20;4.72;;;27.20;55.10;;;;;;5017106;28;20033;-89
2021/06/04 10:38:04;;;;;;;4.70;4.20;;;27.10;54.50;;;;;;5008551;28;20484;-94
2021/06/04 10:41:01;;;;;;;4.47;3.83;;;27.20;54.50;;;;;;5008161;28;20026;-93
2021/06/04 10:43:38;;;;;;;4.43;3.50;;;27.20;54.00;;;;;;5020272;28;20488;-94
2021/06/04 10:46:31;;;;;;;5.07;4.57;;;27.20;54.20;;;;;;5029975;28;20120;-96
2021/06/04 10:49:15;;;;;;;7.40;5.15;;;27.00;54.00;;;;;;5026053;28;20492;-95
2021/06/04 10:51:49;;;;;;;6.63;5.20;;;27.10;54.20;;;;;;5038493;28;20079;-94
2021/06/04 10:54:42;;;;;;;7.85;5.80;;;27.20;54.00;;;;;;5053659;28;20025;-96
2021/06/04 10:57:34;;;;;;;5.80;4.43;;;27.20;53.80;;;;;;5021234;28;20048;-95
2021/06/04 11:00:18;;;;;;;4.53;3.50;;;27.20;53.80;;;;;;5042779;28;20661;-94
2021/06/04 11:03:07;;;;;;;4.10;3.70;;;27.50;53.90;;;;;;5001206;28;24559;-88
2021/06/04 11:06:11;;;;;;;4.22;3.80;;;27.70;53.70;;;;;;4998182;28;20029;-91
2021/06/04 11:08:50;;;;;;;3.83;3.10;;;28.00;53.30;;;;;;5024195;28;20029;-89
2021/06/04 11:11:23;;;;;;;4.30;3.88;;;28.20;52.60;;;;;;5006520;28;20089;-92
2021/06/04 11:14:23;;;;;;;4.47;3.22;;;28.20;50.90;;;;;;5013956;28;20033;-90
2021/06/04 11:17:05;;;;;;;5.80;5.18;;;28.20;51.10;;;;;;5017543;28;20038;-90
2021/06/04 11:19:38;;;;;;;;;;;28.30;51.50;;;;;;5017101;28;20508;-89
2021/06/04 11:22:12;;;;;;;7.40;6.15;;;28.30;52.10;;;;;;5016819;28;19916;-91
2021/06/04 11:25:03;;;;;;;9.57;5.97;;;28.30;52.40;;;;;;5032674;28;20026;-92
2021/06/04 11:27:41;;;;;;;4.78;4.25;;;28.00;52.60;;;;;;5003234;28;20046;-93
2021/06/04 11:30:28;;;;;;;5.40;4.40;;;28.00;53.00;;;;;;4998378;28;20511;-94
2021/06/04 11:33:15;;;;;;;4.43;3.63;;;27.90;53.10;;;;;;5029666;28;20040;-93
2021/06/04 11:35:50;;;;;;;4.85;3.55;;;28.10;53.20;;;;;;5010920;28;20022;-93
2021/06/04 11:38:57;;;;;;;4.68;3.90;;;28.50;52.40;;;;;;5034406;28;20025;-92
2021/06/04 11:41:47;;;;;;;4.40;3.67;;;28.80;51.60;;;;;;5035569;28;20025;-92
2021/06/04 11:44:25;;;;;;;4.35;3.28;;;28.80;51.10;;;;;;5009793;28;20034;-93
2021/06/04 11:47:14;;;;;;;4.35;3.80;;;28.80;51.30;;;;;;5013383;28;20025;-93
2021/06/04 11:50:06;;;;;;;8.43;6.20;;;28.60;51.30;;;;;;5034156;28;20050;-92
2021/06/04 11:52:43;;;;;;;;;;;28.30;51.50;;;;;;5017202;28;20106;-90
2021/06/04 11:55:29;;;;;;;7.38;5.28;;;27.90;52.30;;;;;;5014804;28;19909;-94
2021/06/04 11:57:58;;;;;;;6.63;5.60;;;27.70;52.90;;;;;;5012125;28;20128;-95
2021/06/04 12:00:44;;;;;;;5.28;3.75;;;27.90;52.50;;;;;;4999802;28;20030;-96
2021/06/04 12:03:17;;;;;;;6.07;4.93;;;27.90;52.70;;;;;;5025538;28;20022;-94
2021/06/04 12:05:55;;;;;;;7.03;5.53;;;28.00;52.20;;;;;;5013324;28;20212;-92
2021/06/04 12:08:21;;;;;;;5.40;4.32;;;27.80;51.40;;;;;;5018201;28;20095;-92
2021/06/04 12:10:50;;;;;;;5.97;3.78;;;28.00;51.70;;;;;;5024181;28;20026;-92
2021/06/04 12:13:47;;;;;;;5.03;3.63;;;28.30;51.60;;;;;;5027486;28;20048;-92
2021/06/04 12:16:28;;;;;;;5.80;4.22;;;28.40;51.40;;;;;;5016305;28;20032;-92
2021/06/04 12:19:24;;;;;;;3.42;3.05;;;28.70;51.50;;;;;;5014496;28;20055;-94
2021/06/04 12:24:21;;;;;;;5.65;4.20;;;28.80;49.70;;;;;;5055607;22;20069;-94
2021/06/04 12:26:59;;;;;;;5.28;4.10;;;28.70;50.50;;;;;;5016666;28;20033;-92
2021/06/04 12:29:28;;;;;;;5.32;3.80;;;28.40;50.70;;;;;;5048677;28;20060;-91
2021/06/04 12:31:57;;;;;;;6.05;4.70;;;28.20;51.20;;;;;;5034263;28;20024;-95
2021/06/04 12:34:34;;;;;;;4.53;3.80;;;28.10;51.20;;;;;;5044913;28;20124;-95
2021/06/04 12:37:25;;;;;;;4.97;3.40;;;28.00;51.70;;;;;;5036929;28;20025;-96
2021/06/04 12:40:15;;;;;;;4.97;3.65;;;28.00;51.40;;;;;;5050286;28;20024;-95
2021/06/04 12:43:15;;;;;;;5.68;4.53;;;28.20;51.10;;;;;;5041900;28;20036;-96
2021/06/04 12:46:00;;;;;;;4.57;3.28;;;28.30;49.40;;;;;;5035327;28;20110;-91
2021/06/04 12:48:41;;;;;;;3.53;2.95;;;28.60;49.60;;;;;;5035197;28;20036;-91
2021/06/04 12:51:11;;;;;;;5.20;4.45;;;29.00;49.50;;;;;;5065916;28;20024;-91
2021/06/04 12:53:47;;;;;;;4.68;3.60;;;29.00;48.20;;;;;;5035866;28;20036;-89
2021/06/04 12:56:28;;;;;;;4.32;3.72;;;28.90;48.60;;;;;;5049603;28;20487;-91
2021/06/04 12:59:14;;;;;;;3.10;2.80;;;29.20;48.70;;;;;;5021711;28;20136;-90
2021/06/04 13:02:01;;;;;;;5.60;3.90;;;29.20;48.30;;;;;;5032418;28;20380;-91
2021/06/04 13:04:32;;;;;;;3.75;3.30;;;29.00;47.60;;;;;;5034799;28;20120;-90
2021/06/04 13:07:23;;;;;;;4.72;4.07;;;29.00;48.20;;;;;;5042641;28;20147;-93
2021/06/04 13:10:04;;;;;;;6.60;4.53;;;29.10;48.60;;;;;;5041078;28;20112;-94
2021/06/04 13:12:32;;;;;;;4.28;3.20;;;28.80;48.90;;;;;;5026680;28;20040;-92
2021/06/04 13:15:14;;;;;;;5.15;3.22;;;28.70;49.50;;;;;;5042516;28;20257;-92
2021/06/04 13:18:05;;;;;;;3.40;3.05;;;28.70;49.50;;;;;;5033824;28;20032;-92
2021/06/04 13:20:41;;;;;;;3.40;3.03;;;28.80;49.50;;;;;;5043304;28;20437;-93
2021/06/04 13:23:30;;;;;;;4.30;3.60;;;28.90;49.30;;;;;;5027297;28;20115;-92
2021/06/04 13:26:09;;;;;;;6.55;4.70;;;28.90;49.20;;;;;;5036391;28;20051;-92
2021/06/04 13:28:46;;;;;;;4.78;4.07;;;28.80;49.00;;;;;;5058995;28;20032;-94
2021/06/04 13:31:23;;;;;;;5.32;4.45;;;28.70;49.20;;;;;;5035845;28;20009;-93
2021/06/04 13:34:09;;;;;;;4.30;3.40;;;28.80;49.10;;;;;;5061047;28;20039;-94
2021/06/04 13:36:37;;;;;;;2.70;2.50;;;29.20;48.90;;;;;;5025556;28;20025;-90
2021/06/04 13:39:28;;;;;;;5.50;3.90;;;29.50;49.20;;;;;;5051569;28;20025;-92